TFM - Tactical Decision Aid
ID: Runway Winds: CIG/VIS Threshold:

KCHS - Charleston Intl, SC, US

Updated at: 1849 UTC 02 Oct 2022
Latest TAF at: 1720 UTC 02 Oct 2022

TAF Board

Time<<03/07Z 03/08Z 03/09Z 03/10Z 03/11Z 03/12Z 03/13Z 03/14Z 03/15Z 03/16Z 03/17Z 03/18Z 03/19Z>>
Type PRVL PRVL PRVL PRVL PRVL PRVL PRVL PRVL PRVL PRVL PRVL
VIS >6 >6 >6 >6 >6 >6 >6 >6 >6 >6 >6
CIG 25 25 25 25 25 25 25 20 20 20 20
Cover BKN BKN BKN BKN BKN BKN BKN BKN BKN BKN BKN
FltCat MVFR MVFR MVFR MVFR MVFR MVFR MVFR MVFR MVFR MVFR MVFR
WX -- -- -- -- -- -- -- -- -- -- --
WDir 360 360 360 360 360 360 360 10 10 10 10
WSpd 9 9 9 9 9 9 9 11 11 11 11
WGst -- -- -- -- -- -- -- 17 17 17 17
WSHgt -- -- -- -- -- -- -- -- -- -- --
WSDir -- -- -- -- -- -- -- -- -- -- --
WSSpd -- -- -- -- -- -- -- -- -- -- --

TDA Impact Legend

  None Marginal Slight Moderate High
Visibility (sm) >5 3≤X≤5 2.5≤X<3 0.5≤X<2.5 <0.5
Ceiling (100 ft) >30 10≤X≤30 7≤X<10 2≤X<7 <2
Wind Speed (kt) <15 15≤X<25 25≤X<30 ≥30
Wind Gust (kt) <15 15≤X<25 25≤X<35 ≥35
Weather No Wx Reported VCTS -TS,-FZRA TS,FZRA +TS,+FZRA
TAF
KCHS 021720Z 0218/0318 36008KT P6SM FEW030 BKN070
  FM030000 36007KT P6SM BKN070
  FM030600 36009KT P6SM BKN025
  FM031400 01011G17KT P6SM BKN020


Radar Display
Forecast Discussion